sensor_id;sensor_type;location;lat;lon;timestamp;P1;durP1;ratioP1;P2;durP2;ratioP2
59972;SDS011;55298;-36.624;-64.282;2023-04-26T00:02:05;5.25;;;3.70;;
59972;SDS011;55298;-36.624;-64.282;2023-04-26T00:04:34;5.38;;;3.50;;
59972;SDS011;55298;-36.624;-64.282;2023-04-26T00:07:02;6.70;;;3.47;;
59972;SDS011;55298;-36.624;-64.282;2023-04-26T00:09:30;8.80;;;3.45;;
59972;SDS011;55298;-36.624;-64.282;2023-04-26T00:11:57;6.03;;;3.60;;
59972;SDS011;55298;-36.624;-64.282;2023-04-26T00:14:25;7.65;;;3.83;;
59972;SDS011;55298;-36.624;-64.282;2023-04-26T00:16:53;4.47;;;3.47;;
59972;SDS011;55298;-36.624;-64.282;2023-04-26T00:19:21;7.90;;;3.72;;
59972;SDS011;55298;-36.624;-64.282;2023-04-26T00:21:49;7.35;;;3.33;;
59972;SDS011;55298;-36.624;-64.282;2023-04-26T00:24:17;8.10;;;3.90;;
59972;SDS011;55298;-36.624;-64.282;2023-04-26T00:26:45;6.03;;;3.63;;
59972;SDS011;55298;-36.624;-64.282;2023-04-26T00:29:13;6.93;;;4.25;;
59972;SDS011;55298;-36.624;-64.282;2023-04-26T00:31:41;4.68;;;3.95;;
59972;SDS011;55298;-36.624;-64.282;2023-04-26T00:34:08;6.45;;;4.20;;
59972;SDS011;55298;-36.624;-64.282;2023-04-26T00:36:36;6.80;;;4.30;;
59972;SDS011;55298;-36.624;-64.282;2023-04-26T00:39:04;4.18;;;3.60;;
59972;SDS011;55298;-36.624;-64.282;2023-04-26T00:41:33;6.15;;;3.70;;
59972;SDS011;55298;-36.624;-64.282;2023-04-26T00:44:01;5.25;;;3.60;;
59972;SDS011;55298;-36.624;-64.282;2023-04-26T00:46:29;5.50;;;3.78;;
59972;SDS011;55298;-36.624;-64.282;2023-04-26T00:48:56;5.53;;;3.90;;
59972;SDS011;55298;-36.624;-64.282;2023-04-26T00:51:24;4.25;;;3.85;;
59972;SDS011;55298;-36.624;-64.282;2023-04-26T00:53:53;5.90;;;4.40;;
59972;SDS011;55298;-36.624;-64.282;2023-04-26T00:56:20;5.15;;;3.92;;
59972;SDS011;55298;-36.624;-64.282;2023-04-26T00:58:49;7.38;;;4.57;;
59972;SDS011;55298;-36.624;-64.282;2023-04-26T01:01:17;5.55;;;4.30;;
59972;SDS011;55298;-36.624;-64.282;2023-04-26T01:03:45;6.32;;;4.38;;
59972;SDS011;55298;-36.624;-64.282;2023-04-26T01:06:14;11.57;;;4.80;;
59972;SDS011;55298;-36.624;-64.282;2023-04-26T01:08:42;9.30;;;5.47;;
59972;SDS011;55298;-36.624;-64.282;2023-04-26T01:11:10;9.30;;;5.53;;
59972;SDS011;55298;-36.624;-64.282;2023-04-26T01:13:39;10.32;;;5.05;;
59972;SDS011;55298;-36.624;-64.282;2023-04-26T01:16:08;6.32;;;4.50;;
59972;SDS011;55298;-36.624;-64.282;2023-04-26T01:18:37;5.68;;;4.07;;
59972;SDS011;55298;-36.624;-64.282;2023-04-26T01:21:09;7.22;;;4.18;;
59972;SDS011;55298;-36.624;-64.282;2023-04-26T01:23:38;5.45;;;4.03;;
59972;SDS011;55298;-36.624;-64.282;2023-04-26T01:26:06;5.97;;;4.03;;
59972;SDS011;55298;-36.624;-64.282;2023-04-26T01:28:34;7.13;;;4.53;;
59972;SDS011;55298;-36.624;-64.282;2023-04-26T01:31:01;7.03;;;4.68;;
59972;SDS011;55298;-36.624;-64.282;2023-04-26T01:33:29;6.20;;;4.32;;
59972;SDS011;55298;-36.624;-64.282;2023-04-26T01:35:57;5.15;;;4.57;;
59972;SDS011;55298;-36.624;-64.282;2023-04-26T01:38:25;8.77;;;3.88;;
59972;SDS011;55298;-36.624;-64.282;2023-04-26T01:40:53;5.90;;;3.90;;
59972;SDS011;55298;-36.624;-64.282;2023-04-26T01:43:23;5.35;;;4.22;;
59972;SDS011;55298;-36.624;-64.282;2023-04-26T01:45:52;4.93;;;3.95;;
59972;SDS011;55298;-36.624;-64.282;2023-04-26T01:48:20;6.57;;;4.72;;
59972;SDS011;55298;-36.624;-64.282;2023-04-26T01:50:49;7.65;;;4.88;;
59972;SDS011;55298;-36.624;-64.282;2023-04-26T01:53:17;5.57;;;4.72;;
59972;SDS011;55298;-36.624;-64.282;2023-04-26T01:55:45;8.98;;;4.20;;
59972;SDS011;55298;-36.624;-64.282;2023-04-26T01:58:13;6.00;;;4.38;;
59972;SDS011;55298;-36.624;-64.282;2023-04-26T02:00:41;9.98;;;5.28;;
59972;SDS011;55298;-36.624;-64.282;2023-04-26T02:03:10;11.20;;;5.95;;
59972;SDS011;55298;-36.624;-64.282;2023-04-26T02:05:38;12.25;;;5.45;;
59972;SDS011;55298;-36.624;-64.282;2023-04-26T02:08:06;11.55;;;5.80;;
59972;SDS011;55298;-36.624;-64.282;2023-04-26T02:10:34;10.10;;;5.63;;
59972;SDS011;55298;-36.624;-64.282;2023-04-26T02:13:02;8.35;;;4.90;;
59972;SDS011;55298;-36.624;-64.282;2023-04-26T02:15:29;5.32;;;4.35;;
59972;SDS011;55298;-36.624;-64.282;2023-04-26T02:17:57;6.68;;;4.50;;
59972;SDS011;55298;-36.624;-64.282;2023-04-26T02:20:25;11.23;;;5.50;;
59972;SDS011;55298;-36.624;-64.282;2023-04-26T02:22:53;5.13;;;4.60;;
59972;SDS011;55298;-36.624;-64.282;2023-04-26T02:25:24;7.82;;;4.97;;
59972;SDS011;55298;-36.624;-64.282;2023-04-26T02:27:52;9.52;;;5.55;;
59972;SDS011;55298;-36.624;-64.282;2023-04-26T02:30:20;6.68;;;5.28;;
59972;SDS011;55298;-36.624;-64.282;2023-04-26T02:32:47;6.65;;;4.72;;
59972;SDS011;55298;-36.624;-64.282;2023-04-26T02:35:18;8.05;;;4.40;;
59972;SDS011;55298;-36.624;-64.282;2023-04-26T02:37:46;6.43;;;3.97;;
59972;SDS011;55298;-36.624;-64.282;2023-04-26T02:40:14;9.52;;;4.57;;
59972;SDS011;55298;-36.624;-64.282;2023-04-26T02:42:42;7.57;;;4.70;;
59972;SDS011;55298;-36.624;-64.282;2023-04-26T02:45:10;4.90;;;4.07;;
59972;SDS011;55298;-36.624;-64.282;2023-04-26T02:47:38;4.90;;;3.80;;
59972;SDS011;55298;-36.624;-64.282;2023-04-26T02:50:06;4.07;;;3.78;;
59972;SDS011;55298;-36.624;-64.282;2023-04-26T02:52:35;5.47;;;3.65;;
59972;SDS011;55298;-36.624;-64.282;2023-04-26T02:55:03;4.00;;;3.70;;
59972;SDS011;55298;-36.624;-64.282;2023-04-26T02:57:31;4.28;;;3.70;;
59972;SDS011;55298;-36.624;-64.282;2023-04-26T02:59:59;7.45;;;3.58;;
59972;SDS011;55298;-36.624;-64.282;2023-04-26T03:02:27;4.45;;;3.88;;
59972;SDS011;55298;-36.624;-64.282;2023-04-26T03:04:55;5.50;;;3.80;;
59972;SDS011;55298;-36.624;-64.282;2023-04-26T03:07:23;5.93;;;3.45;;
59972;SDS011;55298;-36.624;-64.282;2023-04-26T03:09:51;6.78;;;3.83;;
59972;SDS011;55298;-36.624;-64.282;2023-04-26T03:12:19;8.23;;;3.88;;
59972;SDS011;55298;-36.624;-64.282;2023-04-26T03:14:47;4.32;;;3.42;;
59972;SDS011;55298;-36.624;-64.282;2023-04-26T03:17:14;5.68;;;3.83;;
59972;SDS011;55298;-36.624;-64.282;2023-04-26T03:19:42;4.07;;;3.70;;
59972;SDS011;55298;-36.624;-64.282;2023-04-26T03:22:10;7.45;;;3.97;;
59972;SDS011;55298;-36.624;-64.282;2023-04-26T03:24:42;6.38;;;3.47;;
59972;SDS011;55298;-36.624;-64.282;2023-04-26T03:27:12;5.65;;;3.80;;
59972;SDS011;55298;-36.624;-64.282;2023-04-26T03:29:40;4.15;;;3.75;;
59972;SDS011;55298;-36.624;-64.282;2023-04-26T03:32:07;4.32;;;3.45;;
59972;SDS011;55298;-36.624;-64.282;2023-04-26T03:34:35;4.07;;;3.33;;
59972;SDS011;55298;-36.624;-64.282;2023-04-26T03:37:03;4.68;;;3.70;;
59972;SDS011;55298;-36.624;-64.282;2023-04-26T03:39:31;4.93;;;3.42;;
59972;SDS011;55298;-36.624;-64.282;2023-04-26T03:41:59;4.60;;;3.47;;
59972;SDS011;55298;-36.624;-64.282;2023-04-26T03:44:28;4.93;;;4.53;;
59972;SDS011;55298;-36.624;-64.282;2023-04-26T03:46:56;3.90;;;3.60;;
59972;SDS011;55298;-36.624;-64.282;2023-04-26T03:49:24;4.03;;;3.50;;
59972;SDS011;55298;-36.624;-64.282;2023-04-26T03:51:52;3.95;;;3.55;;
59972;SDS011;55298;-36.624;-64.282;2023-04-26T03:54:19;4.68;;;3.40;;
59972;SDS011;55298;-36.624;-64.282;2023-04-26T03:56:47;9.70;;;3.42;;
59972;SDS011;55298;-36.624;-64.282;2023-04-26T03:59:15;5.68;;;3.70;;
59972;SDS011;55298;-36.624;-64.282;2023-04-26T04:01:43;7.65;;;3.90;;
59972;SDS011;55298;-36.624;-64.282;2023-04-26T04:04:10;5.35;;;3.40;;
59972;SDS011;55298;-36.624;-64.282;2023-04-26T04:06:38;3.65;;;3.35;;
59972;SDS011;55298;-36.624;-64.282;2023-04-26T04:09:07;3.38;;;3.17;;
59972;SDS011;55298;-36.624;-64.282;2023-04-26T04:11:35;3.80;;;3.50;;
59972;SDS011;55298;-36.624;-64.282;2023-04-26T04:14:02;4.32;;;3.55;;
59972;SDS011;55298;-36.624;-64.282;2023-04-26T04:16:32;4.25;;;3.53;;
59972;SDS011;55298;-36.624;-64.282;2023-04-26T04:19:00;4.25;;;3.30;;
59972;SDS011;55298;-36.624;-64.282;2023-04-26T04:21:28;3.95;;;3.25;;
59972;SDS011;55298;-36.624;-64.282;2023-04-26T04:23:56;5.20;;;3.80;;
59972;SDS011;55298;-36.624;-64.282;2023-04-26T04:26:25;7.93;;;3.70;;
59972;SDS011;55298;-36.624;-64.282;2023-04-26T04:28:53;9.02;;;4.65;;
59972;SDS011;55298;-36.624;-64.282;2023-04-26T04:31:22;11.38;;;4.45;;
59972;SDS011;55298;-36.624;-64.282;2023-04-26T04:33:50;8.65;;;4.00;;
59972;SDS011;55298;-36.624;-64.282;2023-04-26T04:36:17;5.22;;;3.35;;
59972;SDS011;55298;-36.624;-64.282;2023-04-26T04:38:45;3.88;;;3.45;;
59972;SDS011;55298;-36.624;-64.282;2023-04-26T04:41:13;4.30;;;3.33;;
59972;SDS011;55298;-36.624;-64.282;2023-04-26T04:43:41;3.38;;;3.08;;
59972;SDS011;55298;-36.624;-64.282;2023-04-26T04:46:08;3.85;;;3.47;;
59972;SDS011;55298;-36.624;-64.282;2023-04-26T04:48:37;3.95;;;3.58;;
59972;SDS011;55298;-36.624;-64.282;2023-04-26T04:51:06;7.32;;;4.80;;
59972;SDS011;55298;-36.624;-64.282;2023-04-26T04:53:34;6.00;;;4.20;;
59972;SDS011;55298;-36.624;-64.282;2023-04-26T04:56:02;3.97;;;3.60;;
59972;SDS011;55298;-36.624;-64.282;2023-04-26T04:58:31;4.88;;;3.85;;
59972;SDS011;55298;-36.624;-64.282;2023-04-26T05:00:58;4.03;;;3.70;;
59972;SDS011;55298;-36.624;-64.282;2023-04-26T05:03:27;4.07;;;3.78;;
59972;SDS011;55298;-36.624;-64.282;2023-04-26T05:05:55;4.95;;;3.83;;
59972;SDS011;55298;-36.624;-64.282;2023-04-26T05:08:22;5.28;;;3.53;;
59972;SDS011;55298;-36.624;-64.282;2023-04-26T05:10:51;4.00;;;3.28;;
59972;SDS011;55298;-36.624;-64.282;2023-04-26T05:13:20;4.00;;;3.60;;
59972;SDS011;55298;-36.624;-64.282;2023-04-26T05:15:47;4.93;;;3.58;;
59972;SDS011;55298;-36.624;-64.282;2023-04-26T05:18:15;4.90;;;3.92;;
59972;SDS011;55298;-36.624;-64.282;2023-04-26T05:20:43;5.93;;;3.97;;
59972;SDS011;55298;-36.624;-64.282;2023-04-26T05:23:10;4.20;;;3.70;;
59972;SDS011;55298;-36.624;-64.282;2023-04-26T05:25:38;5.13;;;3.80;;
59972;SDS011;55298;-36.624;-64.282;2023-04-26T05:28:06;6.97;;;4.13;;
59972;SDS011;55298;-36.624;-64.282;2023-04-26T05:30:37;8.85;;;4.10;;
59972;SDS011;55298;-36.624;-64.282;2023-04-26T05:33:05;4.07;;;3.58;;
59972;SDS011;55298;-36.624;-64.282;2023-04-26T05:35:33;5.78;;;3.60;;
59972;SDS011;55298;-36.624;-64.282;2023-04-26T05:38:01;4.10;;;3.70;;
59972;SDS011;55298;-36.624;-64.282;2023-04-26T05:40:29;3.83;;;3.50;;
59972;SDS011;55298;-36.624;-64.282;2023-04-26T05:42:57;4.63;;;4.22;;
59972;SDS011;55298;-36.624;-64.282;2023-04-26T05:45:25;4.43;;;3.60;;
59972;SDS011;55298;-36.624;-64.282;2023-04-26T05:47:52;4.75;;;4.20;;
59972;SDS011;55298;-36.624;-64.282;2023-04-26T05:50:20;8.10;;;4.05;;
59972;SDS011;55298;-36.624;-64.282;2023-04-26T05:52:48;4.45;;;3.80;;
59972;SDS011;55298;-36.624;-64.282;2023-04-26T05:55:16;5.30;;;4.20;;
59972;SDS011;55298;-36.624;-64.282;2023-04-26T05:57:47;5.05;;;3.75;;
59972;SDS011;55298;-36.624;-64.282;2023-04-26T06:00:15;4.80;;;3.65;;
59972;SDS011;55298;-36.624;-64.282;2023-04-26T06:02:45;4.30;;;3.90;;
59972;SDS011;55298;-36.624;-64.282;2023-04-26T06:05:13;4.43;;;4.03;;
59972;SDS011;55298;-36.624;-64.282;2023-04-26T06:07:41;7.90;;;4.30;;
59972;SDS011;55298;-36.624;-64.282;2023-04-26T06:10:09;6.47;;;4.22;;
59972;SDS011;55298;-36.624;-64.282;2023-04-26T06:12:38;4.80;;;4.40;;
59972;SDS011;55298;-36.624;-64.282;2023-04-26T06:15:06;5.20;;;4.15;;
59972;SDS011;55298;-36.624;-64.282;2023-04-26T06:17:34;5.15;;;4.25;;
59972;SDS011;55298;-36.624;-64.282;2023-04-26T06:20:02;7.57;;;4.55;;
59972;SDS011;55298;-36.624;-64.282;2023-04-26T06:22:30;4.50;;;3.80;;
59972;SDS011;55298;-36.624;-64.282;2023-04-26T06:24:58;6.35;;;4.35;;
59972;SDS011;55298;-36.624;-64.282;2023-04-26T06:27:26;5.55;;;4.13;;
59972;SDS011;55298;-36.624;-64.282;2023-04-26T06:29:54;4.90;;;4.13;;
59972;SDS011;55298;-36.624;-64.282;2023-04-26T06:32:22;4.90;;;4.45;;
59972;SDS011;55298;-36.624;-64.282;2023-04-26T06:34:50;6.57;;;4.47;;
59972;SDS011;55298;-36.624;-64.282;2023-04-26T06:37:18;4.82;;;4.35;;
59972;SDS011;55298;-36.624;-64.282;2023-04-26T06:39:46;5.68;;;4.30;;
59972;SDS011;55298;-36.624;-64.282;2023-04-26T06:42:13;4.20;;;3.90;;
59972;SDS011;55298;-36.624;-64.282;2023-04-26T06:44:41;4.38;;;3.97;;
59972;SDS011;55298;-36.624;-64.282;2023-04-26T06:47:09;4.72;;;4.30;;
59972;SDS011;55298;-36.624;-64.282;2023-04-26T06:49:37;6.10;;;4.30;;
59972;SDS011;55298;-36.624;-64.282;2023-04-26T06:52:05;4.53;;;4.20;;
59972;SDS011;55298;-36.624;-64.282;2023-04-26T06:54:34;6.80;;;4.55;;
59972;SDS011;55298;-36.624;-64.282;2023-04-26T06:57:02;4.68;;;4.38;;
59972;SDS011;55298;-36.624;-64.282;2023-04-26T06:59:29;5.60;;;4.20;;
59972;SDS011;55298;-36.624;-64.282;2023-04-26T07:01:57;4.75;;;4.32;;
59972;SDS011;55298;-36.624;-64.282;2023-04-26T07:04:26;6.85;;;4.32;;
59972;SDS011;55298;-36.624;-64.282;2023-04-26T07:06:54;5.22;;;4.10;;
59972;SDS011;55298;-36.624;-64.282;2023-04-26T07:09:22;4.82;;;4.35;;
59972;SDS011;55298;-36.624;-64.282;2023-04-26T07:11:50;4.95;;;4.10;;
59972;SDS011;55298;-36.624;-64.282;2023-04-26T07:14:17;5.55;;;4.10;;
59972;SDS011;55298;-36.624;-64.282;2023-04-26T07:16:45;7.82;;;4.20;;
59972;SDS011;55298;-36.624;-64.282;2023-04-26T07:19:13;5.53;;;4.00;;
59972;SDS011;55298;-36.624;-64.282;2023-04-26T07:21:41;6.38;;;4.55;;
59972;SDS011;55298;-36.624;-64.282;2023-04-26T07:24:09;5.45;;;4.18;;
59972;SDS011;55298;-36.624;-64.282;2023-04-26T07:26:38;4.30;;;4.00;;
59972;SDS011;55298;-36.624;-64.282;2023-04-26T07:29:06;4.70;;;4.10;;
59972;SDS011;55298;-36.624;-64.282;2023-04-26T07:31:33;3.83;;;3.60;;
59972;SDS011;55298;-36.624;-64.282;2023-04-26T07:34:02;4.28;;;3.97;;
59972;SDS011;55298;-36.624;-64.282;2023-04-26T07:36:30;5.00;;;4.50;;
59972;SDS011;55298;-36.624;-64.282;2023-04-26T07:38:58;5.00;;;4.28;;
59972;SDS011;55298;-36.624;-64.282;2023-04-26T07:41:25;5.80;;;4.03;;
59972;SDS011;55298;-36.624;-64.282;2023-04-26T07:43:53;5.93;;;4.05;;
59972;SDS011;55298;-36.624;-64.282;2023-04-26T07:46:21;4.82;;;4.03;;
59972;SDS011;55298;-36.624;-64.282;2023-04-26T07:48:49;4.40;;;4.00;;
59972;SDS011;55298;-36.624;-64.282;2023-04-26T07:51:16;5.95;;;3.95;;
59972;SDS011;55298;-36.624;-64.282;2023-04-26T07:53:44;6.60;;;5.95;;
59972;SDS011;55298;-36.624;-64.282;2023-04-26T07:56:12;5.45;;;4.53;;
59972;SDS011;55298;-36.624;-64.282;2023-04-26T07:58:40;4.97;;;4.50;;
59972;SDS011;55298;-36.624;-64.282;2023-04-26T08:01:07;4.80;;;4.50;;
59972;SDS011;55298;-36.624;-64.282;2023-04-26T08:03:36;4.93;;;4.43;;
59972;SDS011;55298;-36.624;-64.282;2023-04-26T08:06:04;4.70;;;4.30;;
59972;SDS011;55298;-36.624;-64.282;2023-04-26T08:08:33;7.30;;;4.82;;
59972;SDS011;55298;-36.624;-64.282;2023-04-26T08:11:07;4.93;;;4.50;;
59972;SDS011;55298;-36.624;-64.282;2023-04-26T08:13:36;5.38;;;4.30;;
59972;SDS011;55298;-36.624;-64.282;2023-04-26T08:16:04;6.80;;;6.07;;
59972;SDS011;55298;-36.624;-64.282;2023-04-26T08:18:32;5.25;;;4.75;;
59972;SDS011;55298;-36.624;-64.282;2023-04-26T08:20:59;5.25;;;4.82;;
59972;SDS011;55298;-36.624;-64.282;2023-04-26T08:23:31;5.10;;;4.60;;
59972;SDS011;55298;-36.624;-64.282;2023-04-26T08:26:01;6.53;;;5.85;;
59972;SDS011;55298;-36.624;-64.282;2023-04-26T08:28:29;7.05;;;5.22;;
59972;SDS011;55298;-36.624;-64.282;2023-04-26T08:30:57;5.85;;;5.25;;
59972;SDS011;55298;-36.624;-64.282;2023-04-26T08:33:25;6.90;;;5.43;;
59972;SDS011;55298;-36.624;-64.282;2023-04-26T08:35:53;5.68;;;5.10;;
59972;SDS011;55298;-36.624;-64.282;2023-04-26T08:38:20;5.75;;;5.15;;
59972;SDS011;55298;-36.624;-64.282;2023-04-26T08:40:49;8.48;;;5.90;;
59972;SDS011;55298;-36.624;-64.282;2023-04-26T08:43:17;8.82;;;5.80;;
59972;SDS011;55298;-36.624;-64.282;2023-04-26T08:45:45;7.32;;;5.55;;
59972;SDS011;55298;-36.624;-64.282;2023-04-26T08:48:13;6.15;;;4.47;;
59972;SDS011;55298;-36.624;-64.282;2023-04-26T08:50:42;5.80;;;4.70;;
59972;SDS011;55298;-36.624;-64.282;2023-04-26T08:53:13;5.60;;;4.60;;
59972;SDS011;55298;-36.624;-64.282;2023-04-26T08:55:47;5.10;;;4.60;;
59972;SDS011;55298;-36.624;-64.282;2023-04-26T09:00:44;4.78;;;4.35;;
59972;SDS011;55298;-36.624;-64.282;2023-04-26T09:03:13;5.22;;;4.80;;
59972;SDS011;55298;-36.624;-64.282;2023-04-26T09:05:41;5.90;;;5.38;;
59972;SDS011;55298;-36.624;-64.282;2023-04-26T09:08:13;5.65;;;5.25;;
59972;SDS011;55298;-36.624;-64.282;2023-04-26T09:10:42;6.78;;;6.15;;
59972;SDS011;55298;-36.624;-64.282;2023-04-26T09:13:10;5.78;;;5.20;;
59972;SDS011;55298;-36.624;-64.282;2023-04-26T09:15:39;4.97;;;4.60;;
59972;SDS011;55298;-36.624;-64.282;2023-04-26T09:20:45;5.78;;;4.72;;
59972;SDS011;55298;-36.624;-64.282;2023-04-26T09:23:27;5.70;;;4.53;;
59972;SDS011;55298;-36.624;-64.282;2023-04-26T09:25:55;5.90;;;5.30;;
59972;SDS011;55298;-36.624;-64.282;2023-04-26T09:28:40;4.82;;;4.50;;
59972;SDS011;55298;-36.624;-64.282;2023-04-26T09:31:08;5.43;;;4.90;;
59972;SDS011;55298;-36.624;-64.282;2023-04-26T09:33:36;5.95;;;5.05;;
59972;SDS011;55298;-36.624;-64.282;2023-04-26T09:36:24;7.03;;;5.25;;
59972;SDS011;55298;-36.624;-64.282;2023-04-26T09:38:52;6.50;;;5.75;;
59972;SDS011;55298;-36.624;-64.282;2023-04-26T09:41:19;7.75;;;5.68;;
59972;SDS011;55298;-36.624;-64.282;2023-04-26T09:43:48;5.43;;;4.90;;
59972;SDS011;55298;-36.624;-64.282;2023-04-26T09:46:21;10.40;;;5.80;;
59972;SDS011;55298;-36.624;-64.282;2023-04-26T09:49:02;7.90;;;5.47;;
59972;SDS011;55298;-36.624;-64.282;2023-04-26T09:51:30;6.72;;;5.03;;
59972;SDS011;55298;-36.624;-64.282;2023-04-26T09:53:58;9.18;;;5.47;;
59972;SDS011;55298;-36.624;-64.282;2023-04-26T09:56:26;17.33;;;7.18;;
59972;SDS011;55298;-36.624;-64.282;2023-04-26T09:58:55;9.35;;;6.30;;
59972;SDS011;55298;-36.624;-64.282;2023-04-26T10:01:28;16.67;;;7.78;;
59972;SDS011;55298;-36.624;-64.282;2023-04-26T10:03:59;13.50;;;8.10;;
59972;SDS011;55298;-36.624;-64.282;2023-04-26T10:06:29;14.85;;;9.15;;
59972;SDS011;55298;-36.624;-64.282;2023-04-26T10:08:57;11.52;;;7.70;;
59972;SDS011;55298;-36.624;-64.282;2023-04-26T10:11:30;9.50;;;7.28;;
59972;SDS011;55298;-36.624;-64.282;2023-04-26T10:13:59;10.38;;;7.65;;
59972;SDS011;55298;-36.624;-64.282;2023-04-26T10:16:28;13.73;;;7.40;;
59972;SDS011;55298;-36.624;-64.282;2023-04-26T10:18:56;8.38;;;6.80;;
59972;SDS011;55298;-36.624;-64.282;2023-04-26T10:21:29;7.18;;;6.22;;
59972;SDS011;55298;-36.624;-64.282;2023-04-26T10:24:02;9.35;;;6.60;;
59972;SDS011;55298;-36.624;-64.282;2023-04-26T10:29:20;10.20;;;8.07;;
59972;SDS011;55298;-36.624;-64.282;2023-04-26T10:34:36;19.02;;;8.13;;
59972;SDS011;55298;-36.624;-64.282;2023-04-26T10:37:09;10.95;;;7.57;;
59972;SDS011;55298;-36.624;-64.282;2023-04-26T10:39:40;11.50;;;7.35;;
59972;SDS011;55298;-36.624;-64.282;2023-04-26T10:42:17;26.75;;;14.43;;
59972;SDS011;55298;-36.624;-64.282;2023-04-26T10:44:55;13.38;;;8.13;;
59972;SDS011;55298;-36.624;-64.282;2023-04-26T10:47:30;24.70;;;17.60;;
59972;SDS011;55298;-36.624;-64.282;2023-04-26T10:50:02;15.52;;;10.13;;
59972;SDS011;55298;-36.624;-64.282;2023-04-26T10:52:34;16.92;;;9.30;;
59972;SDS011;55298;-36.624;-64.282;2023-04-26T10:55:05;16.65;;;8.60;;
59972;SDS011;55298;-36.624;-64.282;2023-04-26T11:00:19;13.18;;;9.23;;
59972;SDS011;55298;-36.624;-64.282;2023-04-26T11:02:54;10.20;;;8.80;;
59972;SDS011;55298;-36.624;-64.282;2023-04-26T11:08:23;11.15;;;8.15;;
59972;SDS011;55298;-36.624;-64.282;2023-04-26T11:10:57;17.52;;;8.73;;
59972;SDS011;55298;-36.624;-64.282;2023-04-26T11:13:35;20.70;;;9.10;;
59972;SDS011;55298;-36.624;-64.282;2023-04-26T11:16:07;20.60;;;9.00;;
59972;SDS011;55298;-36.624;-64.282;2023-04-26T11:18:39;20.08;;;9.02;;
59972;SDS011;55298;-36.624;-64.282;2023-04-26T11:21:11;14.20;;;8.18;;
59972;SDS011;55298;-36.624;-64.282;2023-04-26T11:23:42;7.80;;;7.05;;
59972;SDS011;55298;-36.624;-64.282;2023-04-26T11:26:20;13.45;;;8.73;;
59972;SDS011;55298;-36.624;-64.282;2023-04-26T11:28:58;9.82;;;8.15;;
59972;SDS011;55298;-36.624;-64.282;2023-04-26T11:31:26;11.27;;;7.70;;
59972;SDS011;55298;-36.624;-64.282;2023-04-26T11:34:03;9.27;;;7.07;;
59972;SDS011;55298;-36.624;-64.282;2023-04-26T11:36:35;14.35;;;8.50;;
59972;SDS011;55298;-36.624;-64.282;2023-04-26T11:39:09;13.48;;;7.68;;
59972;SDS011;55298;-36.624;-64.282;2023-04-26T11:41:38;7.75;;;6.82;;
59972;SDS011;55298;-36.624;-64.282;2023-04-26T11:44:06;7.07;;;6.32;;
59972;SDS011;55298;-36.624;-64.282;2023-04-26T11:46:36;10.90;;;7.30;;
59972;SDS011;55298;-36.624;-64.282;2023-04-26T11:49:04;10.90;;;7.25;;
59972;SDS011;55298;-36.624;-64.282;2023-04-26T11:51:35;7.80;;;7.05;;
59972;SDS011;55298;-36.624;-64.282;2023-04-26T11:54:03;9.75;;;7.28;;
59972;SDS011;55298;-36.624;-64.282;2023-04-26T11:56:32;9.13;;;6.45;;
59972;SDS011;55298;-36.624;-64.282;2023-04-26T11:59:02;9.55;;;7.15;;
59972;SDS011;55298;-36.624;-64.282;2023-04-26T12:01:35;9.40;;;7.05;;
59972;SDS011;55298;-36.624;-64.282;2023-04-26T12:04:08;13.13;;;7.82;;
59972;SDS011;55298;-36.624;-64.282;2023-04-26T12:06:42;19.35;;;7.55;;
59972;SDS011;55298;-36.624;-64.282;2023-04-26T12:09:12;38.15;;;10.57;;
59972;SDS011;55298;-36.624;-64.282;2023-04-26T12:11:40;34.42;;;10.75;;
59972;SDS011;55298;-36.624;-64.282;2023-04-26T12:14:35;31.63;;;18.98;;
59972;SDS011;55298;-36.624;-64.282;2023-04-26T12:17:05;27.60;;;20.85;;
59972;SDS011;55298;-36.624;-64.282;2023-04-26T12:19:33;24.20;;;14.80;;
59972;SDS011;55298;-36.624;-64.282;2023-04-26T12:22:02;16.33;;;11.23;;
59972;SDS011;55298;-36.624;-64.282;2023-04-26T12:24:32;15.85;;;9.70;;
59972;SDS011;55298;-36.624;-64.282;2023-04-26T12:27:03;14.82;;;9.25;;
59972;SDS011;55298;-36.624;-64.282;2023-04-26T12:29:35;10.00;;;6.68;;
59972;SDS011;55298;-36.624;-64.282;2023-04-26T12:32:03;12.52;;;6.60;;
59972;SDS011;55298;-36.624;-64.282;2023-04-26T12:34:31;9.52;;;6.35;;
59972;SDS011;55298;-36.624;-64.282;2023-04-26T12:36:59;12.85;;;5.72;;
59972;SDS011;55298;-36.624;-64.282;2023-04-26T12:39:28;7.10;;;4.97;;
59972;SDS011;55298;-36.624;-64.282;2023-04-26T12:41:57;8.55;;;3.90;;
59972;SDS011;55298;-36.624;-64.282;2023-04-26T12:44:25;8.63;;;4.40;;
59972;SDS011;55298;-36.624;-64.282;2023-04-26T12:46:53;10.50;;;4.57;;
59972;SDS011;55298;-36.624;-64.282;2023-04-26T12:49:21;7.55;;;3.90;;
59972;SDS011;55298;-36.624;-64.282;2023-04-26T12:51:49;8.27;;;4.80;;
59972;SDS011;55298;-36.624;-64.282;2023-04-26T12:54:17;12.65;;;5.53;;
59972;SDS011;55298;-36.624;-64.282;2023-04-26T12:56:46;9.25;;;4.50;;
59972;SDS011;55298;-36.624;-64.282;2023-04-26T12:59:14;7.90;;;3.92;;
59972;SDS011;55298;-36.624;-64.282;2023-04-26T13:01:42;8.70;;;3.47;;
59972;SDS011;55298;-36.624;-64.282;2023-04-26T13:04:10;10.45;;;4.13;;
59972;SDS011;55298;-36.624;-64.282;2023-04-26T13:06:39;5.50;;;3.85;;
59972;SDS011;55298;-36.624;-64.282;2023-04-26T13:09:07;15.35;;;5.13;;
59972;SDS011;55298;-36.624;-64.282;2023-04-26T13:11:38;10.52;;;3.55;;
59972;SDS011;55298;-36.624;-64.282;2023-04-26T13:14:06;6.65;;;3.35;;
59972;SDS011;55298;-36.624;-64.282;2023-04-26T13:16:35;11.55;;;4.35;;
59972;SDS011;55298;-36.624;-64.282;2023-04-26T13:19:07;9.15;;;6.40;;
59972;SDS011;55298;-36.624;-64.282;2023-04-26T13:21:40;8.48;;;5.03;;
59972;SDS011;55298;-36.624;-64.282;2023-04-26T13:24:08;16.65;;;6.22;;
59972;SDS011;55298;-36.624;-64.282;2023-04-26T13:26:37;10.73;;;6.68;;
59972;SDS011;55298;-36.624;-64.282;2023-04-26T13:29:06;13.25;;;6.97;;
59972;SDS011;55298;-36.624;-64.282;2023-04-26T13:31:34;14.65;;;5.55;;
59972;SDS011;55298;-36.624;-64.282;2023-04-26T13:34:04;9.70;;;4.82;;
59972;SDS011;55298;-36.624;-64.282;2023-04-26T13:36:32;9.05;;;3.30;;
59972;SDS011;55298;-36.624;-64.282;2023-04-26T13:39:01;5.13;;;2.97;;
59972;SDS011;55298;-36.624;-64.282;2023-04-26T13:41:29;4.25;;;3.45;;
59972;SDS011;55298;-36.624;-64.282;2023-04-26T13:44:00;6.10;;;3.17;;
59972;SDS011;55298;-36.624;-64.282;2023-04-26T13:46:30;8.65;;;3.78;;
59972;SDS011;55298;-36.624;-64.282;2023-04-26T13:48:59;15.68;;;5.57;;
59972;SDS011;55298;-36.624;-64.282;2023-04-26T13:51:27;8.43;;;3.00;;
59972;SDS011;55298;-36.624;-64.282;2023-04-26T13:53:59;7.93;;;3.57;;
59972;SDS011;55298;-36.624;-64.282;2023-04-26T13:56:27;7.93;;;3.42;;
59972;SDS011;55298;-36.624;-64.282;2023-04-26T13:58:55;8.52;;;3.75;;
59972;SDS011;55298;-36.624;-64.282;2023-04-26T14:01:26;7.88;;;2.80;;
59972;SDS011;55298;-36.624;-64.282;2023-04-26T14:03:55;7.10;;;3.05;;
59972;SDS011;55298;-36.624;-64.282;2023-04-26T14:06:24;9.98;;;3.63;;
59972;SDS011;55298;-36.624;-64.282;2023-04-26T14:08:53;13.32;;;4.25;;
59972;SDS011;55298;-36.624;-64.282;2023-04-26T14:11:22;8.10;;;4.00;;
59972;SDS011;55298;-36.624;-64.282;2023-04-26T14:13:53;10.38;;;3.95;;
59972;SDS011;55298;-36.624;-64.282;2023-04-26T14:16:22;8.05;;;3.35;;
59972;SDS011;55298;-36.624;-64.282;2023-04-26T14:18:50;8.63;;;3.30;;
59972;SDS011;55298;-36.624;-64.282;2023-04-26T14:21:20;5.65;;;3.42;;
59972;SDS011;55298;-36.624;-64.282;2023-04-26T14:23:48;8.35;;;3.10;;
59972;SDS011;55298;-36.624;-64.282;2023-04-26T14:26:19;9.10;;;3.10;;
59972;SDS011;55298;-36.624;-64.282;2023-04-26T14:28:50;7.28;;;3.13;;
59972;SDS011;55298;-36.624;-64.282;2023-04-26T14:31:18;5.80;;;3.13;;
59972;SDS011;55298;-36.624;-64.282;2023-04-26T14:33:47;8.88;;;3.40;;